Time;durP1;ratioP1;P1;durP2;ratioP2;P2;SDS_P1;SDS_P2;PMS_P1;PMS_P2;Temp;Humidity;BMP_temperature;BMP_pressure;BME280_temperature;BME280_humidity;BME280_pressure;Samples;Min_cycle;Max_cycle;Signal;HPM_P1;HPM_P2
2022/10/16 08:27:36;;;;;;;5.80;2.88;;;14.50;99.90;;;;;;4728005;27;10002219;-72
2022/10/16 08:30:02;;;;;;;5.53;2.38;;;14.50;99.90;;;;;;5029631;28;20072;-70
2022/10/16 08:32:28;;;;;;;5.43;2.47;;;14.60;99.90;;;;;;5046324;28;20053;-70
2022/10/16 08:34:54;;;;;;;4.75;2.33;;;14.80;99.90;;;;;;5044589;28;20049;-69
2022/10/16 08:37:20;;;;;;;3.88;2.53;;;15.00;99.90;;;;;;5028723;28;20052;-70
2022/10/16 08:39:45;;;;;;;5.82;2.08;;;15.00;99.90;;;;;;5029161;28;20482;-70
2022/10/16 08:42:28;;;;;;;3.53;1.98;;;14.90;99.90;;;;;;5045507;28;20124;-70
2022/10/16 08:45:09;;;;;;;6.43;1.98;;;15.00;99.90;;;;;;5045832;28;20048;-70
2022/10/16 08:47:56;;;;;;;3.77;1.87;;;15.10;99.90;;;;;;5045257;28;20132;-71
2022/10/16 08:50:29;;;;;;;6.40;1.60;;;15.10;99.90;;;;;;5045253;28;20367;-71
2022/10/16 08:52:56;;;;;;;6.03;2.13;;;15.20;99.90;;;;;;5055892;28;20056;-69
2022/10/16 08:55:46;;;;;;;3.22;1.73;;;15.30;99.90;;;;;;5028258;28;20056;-70
2022/10/16 08:58:20;;;;;;;3.85;1.70;;;15.40;99.90;;;;;;5045081;28;20041;-70
2022/10/16 09:00:58;;;;;;;4.10;1.30;;;15.60;99.90;;;;;;5045669;28;20049;-70
2022/10/16 09:03:30;;;;;;;3.65;1.35;;;15.60;99.90;;;;;;5045651;28;20450;-70
2022/10/16 09:06:05;;;;;;;5.53;1.73;;;15.60;99.90;;;;;;5044819;28;20041;-71
2022/10/16 09:08:44;;;;;;;3.85;1.60;;;15.50;99.90;;;;;;5047968;28;20049;-70
2022/10/16 09:11:15;;;;;;;3.05;1.55;;;15.40;99.90;;;;;;5046453;28;20045;-71
2022/10/16 09:13:47;;;;;;;5.15;1.58;;;15.60;99.90;;;;;;5047997;28;20128;-71
2022/10/16 09:16:34;;;;;;;6.70;1.60;;;15.60;99.90;;;;;;5048050;28;20057;-69
2022/10/16 09:19:28;;;;;;;3.00;1.20;;;15.70;99.90;;;;;;5048390;28;20049;-70
2022/10/16 09:21:55;;;;;;;3.08;1.40;;;15.70;99.90;;;;;;5048257;28;20045;-69
2022/10/16 09:24:25;;;;;;;6.38;1.27;;;16.10;99.90;;;;;;5048387;28;20103;-69
2022/10/16 09:26:51;;;;;;;2.95;1.58;;;16.10;99.90;;;;;;5047877;28;20485;-69
2022/10/16 09:29:20;;;;;;;5.32;1.52;;;16.10;99.90;;;;;;5047994;28;20486;-69
2022/10/16 09:31:46;;;;;;;3.83;1.30;;;16.20;99.90;;;;;;5048165;28;20068;-69
2022/10/16 09:34:31;;;;;;;3.60;1.08;;;16.30;99.90;;;;;;5048011;28;20148;-70
2022/10/16 09:37:01;;;;;;;6.65;1.75;;;16.40;99.90;;;;;;5046176;28;20084;-70
2022/10/16 09:39:26;;;;;;;7.57;1.23;;;16.50;99.90;;;;;;5034611;28;20049;-69
2022/10/16 09:41:53;;;;;;;3.00;1.20;;;16.60;99.90;;;;;;5034454;28;20477;-69
2022/10/16 09:44:18;;;;;;;5.95;1.50;;;16.70;99.90;;;;;;5034468;28;20045;-69
2022/10/16 09:46:44;;;;;;;4.50;1.40;;;16.70;99.90;;;;;;5018002;28;20064;-70
2022/10/16 09:49:26;;;;;;;6.53;1.60;;;16.80;99.90;;;;;;5034441;28;20045;-70
2022/10/16 09:52:12;;;;;;;7.88;1.65;;;16.80;99.90;;;;;;5018209;28;20049;-70
2022/10/16 09:54:48;;;;;;;7.72;1.60;;;16.80;99.90;;;;;;5034637;28;20046;-70
2022/10/16 09:57:14;;;;;;;7.30;2.38;;;16.90;99.90;;;;;;5019332;28;20103;-70
2022/10/16 09:59:48;;;;;;;8.45;1.77;;;17.00;99.90;;;;;;5001601;28;20495;-70
2022/10/16 10:02:16;;;;;;;5.53;1.60;;;17.00;99.90;;;;;;5034161;28;20045;-70
2022/10/16 10:04:51;;;;;;;4.90;1.55;;;16.80;99.90;;;;;;5034372;28;20146;-70
2022/10/16 10:07:21;;;;;;;7.60;1.60;;;16.80;99.90;;;;;;5033825;28;20042;-70
2022/10/16 10:09:47;;;;;;;5.95;1.70;;;16.80;99.90;;;;;;5034248;28;20486;-70
2022/10/16 10:12:25;;;;;;;7.03;1.65;;;16.90;99.90;;;;;;5017612;28;20046;-70
2022/10/16 10:14:53;;;;;;;6.82;1.90;;;17.10;99.90;;;;;;5017711;28;20401;-70
2022/10/16 10:17:28;;;;;;;7.32;1.38;;;17.30;99.90;;;;;;5017287;28;20049;-70
2022/10/16 10:20:00;;;;;;;7.45;1.88;;;17.10;99.90;;;;;;5017529;28;20053;-69
2022/10/16 10:22:38;;;;;;;6.22;1.55;;;17.00;99.90;;;;;;5034043;28;20049;-69
2022/10/16 10:25:13;;;;;;;9.32;1.60;;;16.90;99.90;;;;;;5033726;28;20131;-70
2022/10/16 10:28:03;;;;;;;10.25;1.73;;;17.10;99.90;;;;;;5033879;28;20048;-69
2022/10/16 10:30:56;;;;;;;6.00;1.88;;;17.10;99.90;;;;;;5017009;28;20390;-70
2022/10/16 10:33:43;;;;;;;10.88;1.65;;;17.50;99.90;;;;;;5033379;28;20085;-70
2022/10/16 10:36:30;;;;;;;4.35;1.48;;;17.80;99.90;;;;;;5017184;28;20064;-69
2022/10/16 10:39:06;;;;;;;5.32;1.60;;;17.80;99.90;;;;;;5033773;28;20050;-70
2022/10/16 10:42:10;;;;;;;7.53;1.70;;;17.70;99.90;;;;;;5033773;28;20048;-69
2022/10/16 10:44:42;;;;;;;7.68;1.75;;;17.60;99.90;;;;;;5029035;28;20045;-70
2022/10/16 10:47:26;;;;;;;7.60;1.63;;;17.70;99.90;;;;;;5012203;28;20049;-69
2022/10/16 10:49:52;;;;;;;8.38;1.63;;;17.80;99.90;;;;;;5017371;28;20211;-69
2022/10/16 10:52:34;;;;;;;6.47;1.50;;;17.90;99.90;;;;;;5016930;28;20472;-70
2022/10/16 10:55:22;;;;;;;8.43;1.40;;;17.70;99.90;;;;;;5033453;28;20058;-69
2022/10/16 10:58:12;;;;;;;7.32;1.48;;;17.70;99.90;;;;;;5033436;28;20458;-70
2022/10/16 11:00:47;;;;;;;6.03;1.33;;;17.70;99.90;;;;;;5033356;28;20385;-69
2022/10/16 11:03:18;;;;;;;6.57;1.55;;;17.80;99.90;;;;;;5032602;28;20291;-70
2022/10/16 11:05:45;;;;;;;8.43;1.70;;;17.90;99.90;;;;;;5016642;28;20052;-69
2022/10/16 11:08:16;;;;;;;7.15;1.88;;;18.00;99.90;;;;;;5032838;28;20050;-70
2022/10/16 11:10:47;;;;;;;7.40;1.63;;;18.00;99.90;;;;;;5016711;28;20046;-69
2022/10/16 11:13:35;;;;;;;4.80;1.60;;;18.10;99.90;;;;;;5032425;28;20396;-69
2022/10/16 11:16:27;;;;;;;5.68;1.60;;;18.10;99.90;;;;;;5016408;28;20049;-70
2022/10/16 11:19:12;;;;;;;8.73;1.60;;;18.10;99.90;;;;;;5016633;28;20049;-70
2022/10/16 11:22:08;;;;;;;6.88;1.30;;;18.20;99.90;;;;;;5033021;28;20053;-70
2022/10/16 11:24:58;;;;;;;7.70;2.42;;;18.30;99.90;;;;;;5017116;28;20111;-70
2022/10/16 11:27:40;;;;;;;9.68;1.67;;;18.20;99.90;;;;;;5031906;28;20053;-70
2022/10/16 11:30:20;;;;;;;9.60;1.70;;;18.10;99.90;;;;;;5016490;28;20390;-70
2022/10/16 11:33:08;;;;;;;10.20;1.25;;;18.20;99.90;;;;;;5015904;28;20060;-70
2022/10/16 11:35:55;;;;;;;9.02;1.40;;;18.50;99.90;;;;;;5032412;28;20055;-70
2022/10/16 11:38:54;;;;;;;11.98;1.95;;;18.90;99.90;;;;;;5032312;28;20049;-71
2022/10/16 11:41:44;;;;;;;9.77;1.48;;;19.00;99.90;;;;;;5032426;28;20057;-69
2022/10/16 11:44:41;;;;;;;5.82;1.30;;;19.00;99.90;;;;;;5032612;28;20137;-70
2022/10/16 11:47:23;;;;;;;9.57;1.60;;;19.20;99.90;;;;;;5031872;28;20042;-70
2022/10/16 11:49:55;;;;;;;6.82;1.40;;;19.30;99.90;;;;;;5032087;28;20068;-70
2022/10/16 11:53:07;;;;;;;8.27;1.50;;;19.50;99.90;;;;;;5031842;28;20184;-70
2022/10/16 11:55:35;;;;;;;7.53;1.30;;;19.30;99.90;;;;;;5062769;28;20483;-70
2022/10/16 11:58:12;;;;;;;8.63;1.50;;;19.10;99.90;;;;;;5032301;28;20091;-70
2022/10/16 12:01:09;;;;;;;7.60;1.33;;;19.10;99.90;;;;;;5031617;28;20054;-70
2022/10/16 12:03:48;;;;;;;6.38;1.50;;;19.20;99.90;;;;;;5031816;28;20088;-71
2022/10/16 12:06:14;;;;;;;8.60;1.48;;;19.60;99.90;;;;;;5015652;28;20132;-70
2022/10/16 12:08:40;;;;;;;8.13;1.40;;;19.80;99.90;;;;;;5032155;28;20140;-70
2022/10/16 12:11:23;;;;;;;9.05;1.75;;;19.70;99.90;;;;;;5032152;28;20053;-70
2022/10/16 12:13:49;;;;;;;7.70;1.20;;;19.70;99.90;;;;;;5015427;28;20054;-70
2022/10/16 12:16:15;;;;;;;7.05;1.10;;;19.60;99.90;;;;;;5031732;28;20473;-71
2022/10/16 12:18:43;;;;;;;8.30;1.58;;;19.60;99.90;;;;;;5031805;28;20088;-70
2022/10/16 12:21:13;;;;;;;8.15;1.67;;;20.10;99.90;;;;;;5032050;28;20050;-71
2022/10/16 12:23:51;;;;;;;8.52;1.58;;;20.50;99.90;;;;;;5048799;28;20046;-70
2022/10/16 12:26:31;;;;;;;7.00;1.60;;;21.10;99.90;;;;;;5015157;28;20057;-70
2022/10/16 12:29:18;;;;;;;7.50;1.52;;;21.50;99.90;;;;;;5015563;28;20053;-71
2022/10/16 12:31:48;;;;;;;6.63;1.52;;;21.50;99.90;;;;;;5031853;28;20041;-70
2022/10/16 12:34:23;;;;;;;9.85;1.70;;;21.30;99.90;;;;;;5032025;28;20080;-70
2022/10/16 12:36:49;;;;;;;8.27;1.60;;;21.40;99.90;;;;;;5031887;28;20084;-71
2022/10/16 12:39:24;;;;;;;6.80;1.38;;;21.50;99.90;;;;;;5015410;28;20046;-71
2022/10/16 12:42:05;;;;;;;8.52;2.03;;;21.60;99.90;;;;;;5015332;28;20086;-71
2022/10/16 12:44:36;;;;;;;4.25;1.17;;;22.00;99.90;;;;;;5031634;28;20136;-70
2022/10/16 12:47:02;;;;;;;5.68;1.52;;;22.60;99.90;;;;;;5015335;28;20475;-71
2022/10/16 12:49:28;;;;;;;8.73;1.55;;;22.30;99.90;;;;;;5031194;28;20141;-71
2022/10/16 12:51:54;;;;;;;9.05;1.70;;;21.80;99.90;;;;;;5015364;28;20137;-70
2022/10/16 12:54:30;;;;;;;6.78;1.63;;;21.00;99.90;;;;;;5031728;28;20085;-71
2022/10/16 12:57:01;;;;;;;10.82;1.70;;;20.30;99.90;;;;;;5015058;28;20053;-71
2022/10/16 12:59:46;;;;;;;7.32;1.50;;;19.70;99.90;;;;;;5014943;28;20490;-71
2022/10/16 13:02:26;;;;;;;6.15;1.58;;;19.60;99.90;;;;;;5015334;28;20092;-71
2022/10/16 13:05:10;;;;;;;10.45;1.52;;;20.40;99.90;;;;;;5015248;28;20056;-71
2022/10/16 13:07:49;;;;;;;8.93;1.60;;;20.90;99.90;;;;;;5031127;28;20108;-71
2022/10/16 13:10:28;;;;;;;7.45;2.25;;;21.50;99.90;;;;;;5031577;28;20487;-72
2022/10/16 13:13:13;;;;;;;7.22;1.58;;;22.00;99.90;;;;;;5032738;28;20152;-71
2022/10/16 13:15:58;;;;;;;9.13;1.65;;;22.30;99.90;;;;;;5034794;28;20572;-71
2022/10/16 13:18:32;;;;;;;7.35;1.50;;;22.40;99.80;;;;;;5035280;28;20541;-71
2022/10/16 13:21:04;;;;;;;6.65;1.83;;;23.30;99.90;;;;;;5035280;28;20080;-71
2022/10/16 13:23:43;;;;;;;7.93;1.75;;;23.90;97.50;;;;;;5035025;28;20049;-71
2022/10/16 13:26:14;;;;;;;8.48;1.40;;;23.60;97.50;;;;;;5034928;28;20050;-70
2022/10/16 13:28:40;;;;;;;6.45;1.25;;;23.70;94.10;;;;;;5034918;28;20045;-71
2022/10/16 13:31:19;;;;;;;7.88;1.40;;;23.50;96.30;;;;;;5018544;28;20048;-71
2022/10/16 13:33:54;;;;;;;7.15;1.48;;;24.00;93.00;;;;;;5034750;28;20053;-71
2022/10/16 13:36:29;;;;;;;5.50;1.50;;;24.00;91.10;;;;;;5018255;28;20043;-72
2022/10/16 13:39:15;;;;;;;9.05;1.48;;;24.30;91.50;;;;;;5034889;28;20050;-71
2022/10/16 13:41:41;;;;;;;5.32;1.45;;;24.10;87.50;;;;;;5034517;28;20045;-70
2022/10/16 13:44:19;;;;;;;6.15;1.70;;;23.50;88.30;;;;;;5018263;28;20049;-71
2022/10/16 13:46:46;;;;;;;6.22;1.50;;;23.30;88.00;;;;;;5017745;28;20045;-71
2022/10/16 13:49:15;;;;;;;5.13;1.50;;;23.30;87.10;;;;;;5034336;28;20045;-71
2022/10/16 13:51:41;;;;;;;8.52;1.38;;;23.60;87.10;;;;;;5018089;28;20053;-71
2022/10/16 13:54:11;;;;;;;6.60;1.30;;;23.20;83.80;;;;;;5034609;28;20068;-71
2022/10/16 13:56:40;;;;;;;7.05;1.50;;;23.50;83.70;;;;;;5034149;28;20504;-71
2022/10/16 13:59:22;;;;;;;7.68;1.35;;;23.50;86.10;;;;;;5018034;28;20041;-71
2022/10/16 14:01:49;;;;;;;7.45;1.40;;;23.30;85.90;;;;;;5034153;28;20060;-71
2022/10/16 14:04:15;;;;;;;12.15;1.58;;;23.50;85.70;;;;;;5018026;28;20057;-71
2022/10/16 14:06:48;;;;;;;5.82;1.35;;;23.60;86.40;;;;;;5001303;28;20436;-71
2022/10/16 14:09:29;;;;;;;7.15;1.38;;;23.90;83.10;;;;;;5034404;28;20130;-71
2022/10/16 14:12:03;;;;;;;5.40;1.55;;;23.90;81.10;;;;;;5034084;28;20045;-71
2022/10/16 14:14:57;;;;;;;6.07;1.60;;;23.70;81.50;;;;;;5017466;28;20383;-71
2022/10/16 14:17:34;;;;;;;6.80;1.25;;;24.10;76.20;;;;;;5065133;28;20056;-71
2022/10/16 14:20:04;;;;;;;8.45;1.40;;;23.20;76.80;;;;;;5034148;28;20397;-71
2022/10/16 14:22:35;;;;;;;6.80;1.40;;;23.30;81.40;;;;;;5034064;28;20064;-71
2022/10/16 14:25:02;;;;;;;7.43;1.42;;;22.90;78.30;;;;;;5034072;28;20701;-71
2022/10/16 14:27:36;;;;;;;5.65;1.17;;;22.70;78.20;;;;;;5033374;28;20061;-71
2022/10/16 14:30:11;;;;;;;7.72;1.33;;;22.70;78.40;;;;;;5033871;28;20041;-71
2022/10/16 14:32:39;;;;;;;5.60;1.05;;;22.60;75.80;;;;;;5033656;28;20494;-71
2022/10/16 14:35:23;;;;;;;4.70;1.30;;;22.40;75.60;;;;;;5017368;28;20085;-71
2022/10/16 14:37:52;;;;;;;6.55;1.23;;;22.10;75.10;;;;;;5033596;28;20478;-72
2022/10/16 14:40:18;;;;;;;4.60;1.23;;;21.70;78.80;;;;;;5033711;28;20091;-71
2022/10/16 14:42:45;;;;;;;7.25;1.35;;;21.30;80.10;;;;;;5033478;28;20045;-71
2022/10/16 14:45:11;;;;;;;8.13;1.50;;;21.00;80.70;;;;;;5017035;28;20551;-71
2022/10/16 14:47:49;;;;;;;4.43;1.15;;;20.60;84.20;;;;;;5000652;28;20053;-71
2022/10/16 14:50:14;;;;;;;7.47;1.10;;;20.10;88.10;;;;;;5017001;28;20053;-71
2022/10/16 14:52:40;;;;;;;7.60;1.35;;;19.90;90.00;;;;;;5033290;28;20179;-71
2022/10/16 14:55:07;;;;;;;6.30;1.27;;;19.50;91.30;;;;;;5016833;28;20050;-72
2022/10/16 14:57:37;;;;;;;7.47;1.55;;;19.20;93.20;;;;;;5033107;28;20038;-71
2022/10/16 15:00:09;;;;;;;7.45;1.50;;;19.10;95.50;;;;;;5033303;28;20069;-72
2022/10/16 15:02:36;;;;;;;9.32;1.60;;;18.80;96.40;;;;;;5050866;28;20537;-71
2022/10/16 15:05:17;;;;;;;6.25;1.38;;;18.70;98.50;;;;;;5000346;28;20053;-71
2022/10/16 15:07:43;;;;;;;7.57;1.40;;;18.50;99.90;;;;;;5016608;28;20371;-71
2022/10/16 15:10:09;;;;;;;9.52;1.83;;;18.20;99.90;;;;;;5033058;28;20780;-71
2022/10/16 15:12:35;;;;;;;8.85;1.30;;;18.00;99.90;;;;;;4999943;28;20107;-72
2022/10/16 15:15:01;;;;;;;6.45;1.33;;;18.00;99.90;;;;;;5032836;28;20049;-71
2022/10/16 15:17:26;;;;;;;8.77;1.45;;;17.90;99.90;;;;;;5016180;28;20042;-71
2022/10/16 15:19:55;;;;;;;8.88;1.40;;;17.80;99.90;;;;;;5032906;28;20037;-71
2022/10/16 15:22:23;;;;;;;7.93;1.20;;;17.60;99.90;;;;;;5032652;28;20502;-71
2022/10/16 15:24:48;;;;;;;9.13;1.50;;;17.50;99.90;;;;;;5032687;28;20049;-72
2022/10/16 15:27:14;;;;;;;11.98;1.60;;;17.40;99.90;;;;;;4999497;28;20057;-72
2022/10/16 15:29:40;;;;;;;13.95;2.00;;;17.20;99.90;;;;;;5032820;28;20398;-72
2022/10/16 15:32:05;;;;;;;9.40;1.58;;;17.10;99.90;;;;;;5016044;28;20482;-71
2022/10/16 15:34:31;;;;;;;10.80;1.33;;;17.00;99.90;;;;;;5032709;28;20052;-71
2022/10/16 15:36:57;;;;;;;11.05;1.85;;;16.90;99.90;;;;;;5015222;28;20038;-71
2022/10/16 15:39:23;;;;;;;8.15;1.60;;;16.80;99.90;;;;;;5016231;28;20511;-71
2022/10/16 15:41:50;;;;;;;10.82;1.45;;;16.80;99.90;;;;;;5015959;28;20135;-72
2022/10/16 15:44:20;;;;;;;11.15;1.40;;;16.80;99.90;;;;;;5032523;28;20050;-72
2022/10/16 15:46:46;;;;;;;6.70;1.70;;;16.80;99.90;;;;;;5032282;28;20136;-71
2022/10/16 15:49:12;;;;;;;6.95;1.65;;;16.70;99.90;;;;;;5032309;28;20134;-72
2022/10/16 15:51:40;;;;;;;7.82;1.60;;;16.60;99.90;;;;;;5032364;28;20041;-71
2022/10/16 15:54:06;;;;;;;10.25;1.95;;;16.50;99.90;;;;;;5032175;28;20049;-71
2022/10/16 15:56:33;;;;;;;11.68;2.40;;;16.40;99.90;;;;;;5032187;28;20048;-72
2022/10/16 15:59:00;;;;;;;11.65;2.40;;;16.30;99.90;;;;;;5032195;28;20139;-71
2022/10/16 16:01:26;;;;;;;10.73;2.13;;;16.20;99.90;;;;;;5032298;28;20041;-72
2022/10/16 16:03:53;;;;;;;6.95;2.30;;;16.10;99.90;;;;;;5032067;28;20116;-71
2022/10/16 16:06:19;;;;;;;12.73;2.38;;;16.00;99.90;;;;;;5032185;28;20399;-71
2022/10/16 16:08:45;;;;;;;8.95;1.85;;;16.00;99.90;;;;;;5015815;28;20490;-71
2022/10/16 16:11:13;;;;;;;9.77;1.98;;;15.90;99.90;;;;;;5015650;28;20080;-71
2022/10/16 16:13:40;;;;;;;10.10;1.52;;;15.70;99.90;;;;;;5031822;28;20080;-72
2022/10/16 16:16:14;;;;;;;6.95;2.15;;;15.50;99.90;;;;;;5015260;28;20485;-72
2022/10/16 16:18:40;;;;;;;10.32;1.80;;;15.30;99.90;;;;;;5032173;28;20450;-71
2022/10/16 16:21:06;;;;;;;9.32;1.63;;;15.20;99.90;;;;;;5015344;28;20136;-73
2022/10/16 16:23:32;;;;;;;10.13;1.88;;;15.10;99.90;;;;;;5015511;28;20128;-71
2022/10/16 16:26:05;;;;;;;5.38;1.40;;;14.90;99.90;;;;;;5031375;28;20104;-71
2022/10/16 16:28:31;;;;;;;10.55;1.42;;;14.80;99.90;;;;;;5032005;28;20140;-71
2022/10/16 16:30:57;;;;;;;8.23;1.80;;;14.80;99.90;;;;;;5031660;28;20057;-71
2022/10/16 16:33:23;;;;;;;13.23;1.67;;;14.70;99.90;;;;;;5014778;28;20050;-72
2022/10/16 16:35:49;;;;;;;11.30;2.67;;;14.50;99.90;;;;;;5014211;28;20052;-74
2022/10/16 16:38:15;;;;;;;11.07;1.90;;;14.30;99.90;;;;;;4998027;28;20136;-72
2022/10/16 16:40:41;;;;;;;11.98;2.00;;;14.30;99.90;;;;;;5031052;28;20391;-72
2022/10/16 16:43:07;;;;;;;9.15;1.77;;;14.20;99.90;;;;;;5014848;28;20080;-72
2022/10/16 16:45:35;;;;;;;8.10;1.85;;;14.10;99.90;;;;;;5031476;28;20053;-71
2022/10/16 16:48:01;;;;;;;10.80;2.03;;;14.00;99.90;;;;;;5016299;28;20071;-72
2022/10/16 16:50:27;;;;;;;10.77;1.88;;;13.90;99.90;;;;;;5019109;28;20053;-71
2022/10/16 16:52:52;;;;;;;11.52;2.20;;;13.80;99.90;;;;;;5035040;28;20112;-72
2022/10/16 16:55:18;;;;;;;8.05;1.40;;;13.70;99.90;;;;;;5002821;28;20052;-71
2022/10/16 16:57:44;;;;;;;11.07;1.58;;;13.50;99.90;;;;;;5002365;28;20038;-72
2022/10/16 17:00:10;;;;;;;8.50;1.85;;;13.30;99.90;;;;;;5018933;28;20045;-71
2022/10/16 17:02:36;;;;;;;10.20;1.80;;;13.20;99.90;;;;;;5019151;28;20088;-72
2022/10/16 17:05:02;;;;;;;12.10;1.85;;;13.10;99.90;;;;;;5018643;28;20081;-72
2022/10/16 17:07:32;;;;;;;10.23;2.00;;;13.00;99.90;;;;;;5019008;28;20064;-71
2022/10/16 17:09:58;;;;;;;10.25;1.98;;;13.00;99.90;;;;;;5035216;28;20053;-72
2022/10/16 17:12:23;;;;;;;12.75;2.03;;;12.90;99.90;;;;;;5018752;28;20045;-72
2022/10/16 17:14:50;;;;;;;10.00;2.38;;;12.90;99.90;;;;;;5035338;28;20073;-72
2022/10/16 17:17:16;;;;;;;9.00;2.03;;;12.90;99.90;;;;;;5034833;28;20050;-71
2022/10/16 17:19:42;;;;;;;12.13;2.53;;;12.80;99.90;;;;;;5035185;28;20042;-72
2022/10/16 17:22:07;;;;;;;6.72;2.17;;;12.70;99.90;;;;;;5018529;28;20048;-71
2022/10/16 17:24:33;;;;;;;9.85;2.28;;;12.60;99.90;;;;;;5035102;28;20128;-71
2022/10/16 17:26:59;;;;;;;14.13;2.10;;;12.60;99.90;;;;;;5017779;28;20129;-71
2022/10/16 17:29:25;;;;;;;5.00;1.67;;;12.50;99.90;;;;;;5018466;28;20050;-71
2022/10/16 17:31:50;;;;;;;11.55;1.90;;;12.40;99.90;;;;;;5034592;28;20072;-72
2022/10/16 17:34:17;;;;;;;11.63;2.40;;;12.30;99.90;;;;;;5018150;28;20494;-72
2022/10/16 17:36:45;;;;;;;8.65;1.88;;;12.20;99.90;;;;;;5017927;28;20053;-72
2022/10/16 17:39:13;;;;;;;10.30;2.28;;;12.20;99.90;;;;;;5034508;28;20072;-72
2022/10/16 17:41:39;;;;;;;13.43;2.60;;;12.20;99.90;;;;;;5034709;28;20052;-72
2022/10/16 17:44:06;;;;;;;13.32;2.92;;;12.20;99.90;;;;;;5017889;28;20048;-72
2022/10/16 17:46:32;;;;;;;9.82;2.72;;;12.10;99.90;;;;;;5034123;28;20424;-72
2022/10/16 17:48:58;;;;;;;9.63;3.20;;;12.10;99.90;;;;;;5034480;28;20490;-71
2022/10/16 17:51:29;;;;;;;19.35;4.95;;;12.10;99.90;;;;;;5017769;28;20150;-72
2022/10/16 17:53:58;;;;;;;15.73;4.57;;;12.00;99.90;;;;;;5034467;28;20056;-71
2022/10/16 17:56:25;;;;;;;16.33;4.13;;;12.00;99.90;;;;;;5017532;28;20044;-72
2022/10/16 17:58:53;;;;;;;14.00;5.35;;;12.00;99.90;;;;;;5017239;28;20049;-72
2022/10/16 18:01:23;;;;;;;11.82;4.70;;;12.00;99.90;;;;;;5034082;28;20041;-72
2022/10/16 18:03:55;;;;;;;13.55;4.45;;;12.00;99.90;;;;;;5017622;28;20057;-72
2022/10/16 18:06:21;;;;;;;12.85;4.90;;;11.90;99.90;;;;;;5033673;28;20501;-72
2022/10/16 18:08:47;;;;;;;11.02;4.18;;;11.80;99.90;;;;;;5034133;28;20041;-71
2022/10/16 18:11:13;;;;;;;15.82;6.00;;;11.70;99.90;;;;;;5017252;28;20049;-72
2022/10/16 18:13:39;;;;;;;16.60;6.22;;;11.70;99.90;;;;;;5017713;28;20128;-72
2022/10/16 18:16:10;;;;;;;16.25;6.40;;;11.70;99.90;;;;;;5017379;28;20045;-72
2022/10/16 18:18:37;;;;;;;;;;;11.70;99.90;;;;;;5034175;28;20132;-72
2022/10/16 18:21:05;;;;;;;16.75;6.22;;;11.80;99.90;;;;;;5050790;28;19928;-72
2022/10/16 18:23:33;;;;;;;13.40;5.90;;;11.80;99.90;;;;;;5017392;28;20049;-72
2022/10/16 18:25:59;;;;;;;13.85;5.68;;;11.70;99.90;;;;;;5033449;28;20115;-71
2022/10/16 18:28:25;;;;;;;20.17;5.68;;;11.80;99.90;;;;;;5033444;28;20095;-72
2022/10/16 18:30:58;;;;;;;16.30;5.38;;;11.80;99.90;;;;;;5033332;28;20052;-71
2022/10/16 18:33:25;;;;;;;15.48;6.63;;;11.80;99.90;;;;;;5033533;28;20569;-71
2022/10/16 18:35:52;;;;;;;17.30;7.00;;;11.80;99.90;;;;;;5016942;28;20049;-72
2022/10/16 18:38:18;;;;;;;19.13;7.47;;;11.80;99.90;;;;;;5033218;28;20494;-72
2022/10/16 18:40:45;;;;;;;16.67;7.30;;;11.80;99.90;;;;;;5033332;28;20048;-73
2022/10/16 18:43:11;;;;;;;19.67;8.38;;;11.70;99.90;;;;;;5016759;28;20045;-72
2022/10/16 18:45:39;;;;;;;17.25;6.70;;;11.70;99.90;;;;;;5016993;28;20071;-71
2022/10/16 18:48:05;;;;;;;13.95;6.30;;;11.70;99.90;;;;;;5033287;28;20053;-72
2022/10/16 18:50:32;;;;;;;20.17;6.88;;;11.80;99.90;;;;;;5033225;28;20083;-71
2022/10/16 18:52:58;;;;;;;17.15;6.50;;;11.80;99.90;;;;;;5016982;28;20081;-71
2022/10/16 18:55:24;;;;;;;15.75;6.95;;;11.80;99.90;;;;;;5033159;28;20539;-72
2022/10/16 18:57:50;;;;;;;16.10;6.75;;;11.80;99.90;;;;;;5032695;28;20037;-72
2022/10/16 19:00:16;;;;;;;16.35;7.10;;;11.80;99.90;;;;;;5016660;28;20080;-72
2022/10/16 19:02:41;;;;;;;16.73;7.05;;;11.80;99.90;;;;;;5033150;28;20411;-71
2022/10/16 19:05:09;;;;;;;16.23;7.20;;;11.90;99.90;;;;;;5016663;28;20053;-71
2022/10/16 19:07:35;;;;;;;15.50;6.22;;;11.90;99.90;;;;;;5016746;28;20123;-71
2022/10/16 19:10:01;;;;;;;13.70;6.30;;;11.90;99.90;;;;;;5032382;28;20041;-71
2022/10/16 19:12:26;;;;;;;19.27;6.30;;;11.90;99.90;;;;;;5032495;28;20401;-71
2022/10/16 19:14:52;;;;;;;11.57;5.43;;;12.00;99.90;;;;;;5016446;28;20052;-71
2022/10/16 19:17:18;;;;;;;14.23;5.40;;;11.90;99.90;;;;;;5016143;28;20041;-71
2022/10/16 19:19:43;;;;;;;11.13;5.00;;;11.90;99.90;;;;;;5016293;28;20053;-71
2022/10/16 19:22:26;;;;;;;14.63;5.85;;;11.80;99.90;;;;;;5032996;28;20099;-71
2022/10/16 19:24:56;;;;;;;14.32;6.28;;;11.80;99.90;;;;;;5018579;28;20056;-71
2022/10/16 19:27:22;;;;;;;14.00;5.72;;;11.80;99.90;;;;;;5031847;28;20111;-71
2022/10/16 19:29:48;;;;;;;11.10;5.80;;;11.80;99.90;;;;;;5032843;28;20045;-71
2022/10/16 19:32:13;;;;;;;15.27;6.72;;;11.80;99.90;;;;;;5032110;28;20072;-71
2022/10/16 19:34:39;;;;;;;13.50;6.50;;;11.80;99.90;;;;;;5032725;28;20048;-71
2022/10/16 19:37:05;;;;;;;18.75;7.18;;;11.80;99.90;;;;;;5032179;28;20042;-71
2022/10/16 19:39:31;;;;;;;16.67;6.50;;;11.80;99.90;;;;;;5032428;28;20049;-71
2022/10/16 19:41:56;;;;;;;15.25;6.80;;;11.90;99.90;;;;;;5015738;28;20490;-71
2022/10/16 19:44:22;;;;;;;11.93;7.05;;;11.90;99.90;;;;;;5015957;28;20087;-71
2022/10/16 19:46:48;;;;;;;17.25;8.32;;;11.80;99.90;;;;;;5032354;28;20164;-71
2022/10/16 19:49:20;;;;;;;20.80;8.73;;;11.90;99.90;;;;;;5032225;28;20107;-71
2022/10/16 19:51:48;;;;;;;19.77;9.10;;;11.80;99.90;;;;;;5032466;28;20111;-71
2022/10/16 19:54:15;;;;;;;18.25;9.02;;;11.80;99.90;;;;;;5015653;28;20099;-72
2022/10/16 19:56:41;;;;;;;15.55;7.82;;;11.90;99.90;;;;;;5032121;28;20045;-71
2022/10/16 19:59:10;;;;;;;16.50;8.48;;;11.90;99.90;;;;;;5015724;28;20406;-71
2022/10/16 20:01:36;;;;;;;20.27;8.32;;;11.90;99.90;;;;;;5032178;28;20131;-71
2022/10/16 20:04:02;;;;;;;15.07;8.85;;;11.80;99.90;;;;;;5031933;28;20085;-71
2022/10/16 20:06:28;;;;;;;14.77;7.60;;;11.80;99.90;;;;;;5031980;28;20080;-71
2022/10/16 20:08:56;;;;;;;18.58;9.70;;;11.80;99.90;;;;;;5031769;28;20492;-71
2022/10/16 20:11:25;;;;;;;19.42;9.50;;;11.80;99.90;;;;;;5031859;28;20057;-71
2022/10/16 20:13:51;;;;;;;18.70;10.27;;;11.90;99.90;;;;;;5015649;28;20049;-71
2022/10/16 20:16:18;;;;;;;23.10;10.60;;;11.90;99.90;;;;;;5015258;28;20048;-71
2022/10/16 20:18:46;;;;;;;16.73;8.20;;;12.00;99.90;;;;;;5032039;28;20060;-72
2022/10/16 20:21:18;;;;;;;13.07;7.32;;;12.00;99.90;;;;;;5015273;28;20057;-71
2022/10/16 20:23:44;;;;;;;;;;;12.00;99.90;;;;;;5032189;28;20045;-71
2022/10/16 20:26:10;;;;;;;14.88;8.13;;;12.00;99.90;;;;;;5031526;28;19921;-71
2022/10/16 20:28:38;;;;;;;15.48;8.13;;;11.90;99.90;;;;;;5031747;28;20053;-71
2022/10/16 20:31:16;;;;;;;13.38;7.90;;;11.80;99.90;;;;;;5031933;28;20049;-71
2022/10/16 20:33:42;;;;;;;17.35;8.90;;;11.90;99.90;;;;;;5031148;28;20460;-71
2022/10/16 20:36:11;;;;;;;16.75;8.35;;;11.90;99.90;;;;;;5048470;28;20045;-71
2022/10/16 20:38:37;;;;;;;15.68;8.95;;;11.90;99.90;;;;;;5031088;28;20394;-71
2022/10/16 20:41:04;;;;;;;15.68;8.85;;;11.80;99.90;;;;;;5048373;28;20045;-71
2022/10/16 20:43:30;;;;;;;18.42;9.57;;;11.90;99.90;;;;;;5014845;28;20049;-71
2022/10/16 20:46:04;;;;;;;15.93;8.43;;;11.90;99.90;;;;;;4998763;28;20141;-71
2022/10/16 20:48:30;;;;;;;16.50;8.80;;;11.90;99.90;;;;;;5015165;28;20049;-71
2022/10/16 20:50:58;;;;;;;18.80;9.30;;;11.90;99.90;;;;;;5031566;28;20111;-71
2022/10/16 20:53:25;;;;;;;18.08;8.18;;;11.90;99.90;;;;;;5015119;28;20068;-71
2022/10/16 20:55:51;;;;;;;18.13;9.02;;;11.90;99.90;;;;;;5031338;28;20107;-71
2022/10/16 20:58:16;;;;;;;13.05;7.43;;;12.00;99.90;;;;;;5031629;28;20053;-71
2022/10/16 21:00:43;;;;;;;14.35;7.20;;;12.00;99.90;;;;;;5014691;28;20049;-71
2022/10/16 21:03:10;;;;;;;12.73;6.40;;;12.10;99.90;;;;;;5015123;28;20060;-71
2022/10/16 21:05:41;;;;;;;8.73;6.00;;;12.10;99.90;;;;;;5031329;28;20194;-71
2022/10/16 21:08:06;;;;;;;10.37;6.63;;;12.20;99.90;;;;;;5031226;28;20406;-71
2022/10/16 21:10:32;;;;;;;14.25;6.47;;;12.10;99.90;;;;;;5031382;28;20048;-71
2022/10/16 21:12:58;;;;;;;14.80;6.32;;;12.10;99.90;;;;;;4998573;28;20053;-71
2022/10/16 21:15:23;;;;;;;11.13;6.32;;;12.20;99.90;;;;;;5014731;28;20050;-71
2022/10/16 21:17:49;;;;;;;11.68;6.00;;;12.20;99.90;;;;;;5030595;28;20045;-71
2022/10/16 21:20:15;;;;;;;14.75;7.72;;;12.20;99.90;;;;;;5014817;28;20248;-71
2022/10/16 21:22:41;;;;;;;12.65;7.00;;;12.30;99.90;;;;;;5014918;28;20245;-71
2022/10/16 21:25:07;;;;;;;16.90;7.63;;;12.30;99.90;;;;;;5047935;28;20444;-72
2022/10/16 21:27:37;;;;;;;9.88;6.85;;;12.30;99.90;;;;;;5030669;28;20089;-71
2022/10/16 21:30:06;;;;;;;14.48;7.57;;;12.30;99.90;;;;;;5014686;28;20056;-71